Dunchurch, United Kingdom
Current Conditions -  °F | °C
As of 4:20 PM on Monday 26 Jan 2015 (Local Time) from EGBE Reporting Station
Broken Clouds Broken Clouds  
Wind Chill: 41°   Ceiling: 3800
Heat Index: 46°   Visibility: 6mi
Dew Point: 36°   Wind: 13mph
Humidity: 66%   Direction: 310°NW
Pressure: 30.27"   Gusts: NA
Location:  52.34°N, 1.29°W
Report Text: EGBE 261620Z 31011KT 290V350 9999 FEW028 BKN038 08/02 Q1025
Loading
Personal Weather Stations






























Interactive Weather Map New forecast layout! Learn more

10-Day Weather Forecast

Advertisements
Track Severe Weather on mobile